首页
METAR-TAF:

METAR-TAF

机场 :

米蘭-利納特機場

米蘭, 意大利

纬度: 45-26N, 经度: 009-17E, 海拔: 107米

当前天气观测

该预报发布于26分钟前的18:20 UTC
风速2节,风向多变
温度 10°C
湿度 93%
气压 1016 hPa
能見度: 8000
散云层高于400英尺
多云层高于1500英尺
阴天层高于5000英尺
小雨

METAR: LIML 191820Z VRB02KT 8000 -RA SCT004 BKN015 OVC050 10/09 Q1016 NOSIG

时间: 19:46 (18:46 UTC)

预报

该预报发布于1小时和46分钟前的17:00 UTC
预报有效从19日的 18点(UTC)到 20日的 18点(UTC)
风速5节,风向多变
能見度: 6000
多云层高于1200英尺
多云层高于5000英尺
毛毛雨
成为
从 20日的 02点(UTC)到 20日的 04点(UTC)
能見度: 2500
轻雾
短暂存在
从 20日的 04点(UTC)到 20日的 07点(UTC)
能見度: 1200
碎片雾
成为
从 20日的 07点(UTC)到 20日的 10点(UTC)
能見度: 7000
散云层高于2500英尺
多云层高于6000英尺

TAF: LIML 191700Z 1918/2018 VRB05KT 6000 DZ BKN012 BKN050 BECMG 2002/2004 2500 BR TEMPO 2004/2007 1200 BCFG BECMG 2007/2010 7000 SCT025 BKN060

超过4000个机场的气象观测和天气预报(METAR&TAF报告)。

可查询的气象台以黄色和红色小点在地图上表示。

将鼠标移到小点上方,可查看气象台名称。

然后点击查看天气观测和预报。

如需切换地图:点击带黑十字的绿色按钮放大地图;点击带横线的绿色按钮缩小地图;或者点击绿色箭头查看邻近地区的地图。


METAR-TAF: